Curtis, Texas
Current Conditions -  °F | °C
As of 2:15 PM on Wednesday 26 Nov 2014 (Local Time) from KJAS Reporting Station
Clear Clear  
Wind Chill: 69°   Ceiling: Unl
Heat Index: 69°   Visibility: 10mi
Dew Point: 36°   Wind: 12mph
Humidity: 29%   Direction: 230°SW
Pressure: 30.16"   Gusts: 22mph
Location:  30.9529°N, 94.0707°W
Report Text: KJAS 262015Z AUTO 23010G19KT 10SM CLR 21/02 A3016 RMK AO2 T02050020
Loading
Personal Weather Stations






























Interactive Weather Map New forecast layout! Learn more

10-Day Weather Forecast

Advertisements
Track Severe Weather on mobile